createdAt,value
2017-04-01T00:00:17.736Z,55.82
2017-04-01T00:00:56.063Z,55.85
2017-04-01T00:01:49.792Z,55.87
2017-04-01T00:02:55.354Z,55.88
2017-04-01T00:03:52.553Z,55.90
2017-04-01T00:04:48.319Z,55.90
2017-04-01T00:05:39.446Z,55.92
2017-04-01T00:06:50.008Z,55.91
2017-04-01T00:07:48.928Z,55.92
2017-04-01T00:08:50.648Z,55.92
2017-04-01T00:09:52.247Z,55.93
2017-04-01T00:10:54.905Z,55.95
2017-04-01T00:11:58.062Z,55.93
2017-04-01T00:12:54.400Z,55.92
2017-04-01T00:13:58.958Z,55.94
2017-04-01T00:14:49.767Z,55.92
2017-04-01T00:15:50.671Z,55.92
2017-04-01T00:16:45.406Z,55.93
2017-04-01T00:17:44.926Z,55.93
2017-04-01T00:18:58.034Z,55.93
2017-04-01T00:19:58.124Z,55.93
2017-04-01T00:20:49.782Z,55.95
2017-04-01T00:21:55.807Z,55.93
2017-04-01T00:22:56.890Z,55.92
2017-04-01T00:23:50.402Z,55.92
2017-04-01T00:24:44.328Z,55.94
2017-04-01T00:25:56.909Z,55.93
2017-04-01T00:26:50.401Z,55.94
2017-04-01T00:27:55.030Z,55.95
2017-04-01T00:28:44.892Z,55.94
2017-04-01T00:29:55.408Z,55.93
2017-04-01T00:30:59.169Z,55.93
2017-04-01T00:31:45.892Z,55.93
2017-04-01T00:32:50.671Z,55.94
2017-04-01T00:33:44.714Z,55.94
2017-04-01T00:34:48.213Z,55.94
2017-04-01T00:35:49.414Z,55.93
2017-04-01T00:36:57.919Z,55.94
2017-04-01T00:37:58.595Z,55.94
2017-04-01T00:38:56.436Z,55.94
2017-04-01T00:39:55.823Z,55.94
2017-04-01T00:40:55.393Z,55.93
2017-04-01T00:42:00.362Z,55.93
2017-04-01T00:42:45.241Z,55.94
2017-04-01T00:43:50.676Z,55.94
2017-04-01T00:44:54.848Z,55.94
2017-04-01T00:45:40.891Z,55.95
2017-04-01T00:46:49.251Z,55.94
2017-04-01T00:47:45.084Z,55.95
2017-04-01T00:48:49.717Z,55.07
2017-04-01T00:49:58.308Z,54.85
2017-04-01T00:50:54.221Z,54.75
2017-04-01T00:51:49.144Z,54.72
2017-04-01T00:52:55.168Z,55.52
2017-04-01T00:53:50.712Z,55.70
2017-04-01T00:54:51.630Z,55.79
2017-04-01T00:55:50.485Z,55.85
2017-04-01T00:56:48.023Z,55.88
2017-04-01T00:57:53.459Z,55.91
2017-04-01T00:58:50.486Z,55.92
2017-04-01T01:00:14.214Z,55.93
2017-04-01T01:00:57.765Z,55.93
2017-04-01T01:02:16.168Z,55.92
2017-04-01T01:02:59.747Z,55.91
2017-04-01T01:03:51.124Z,55.92
2017-04-01T01:05:02.272Z,55.94
2017-04-01T01:06:00.555Z,55.95
2017-04-01T01:06:59.426Z,55.95
2017-04-01T01:07:44.177Z,55.94
2017-04-01T01:08:50.133Z,55.94
2017-04-01T01:09:57.849Z,55.95
2017-04-01T01:11:03.497Z,55.95
2017-04-01T01:12:04.093Z,55.95
2017-04-01T01:12:52.668Z,55.95
2017-04-01T01:14:05.154Z,55.95
2017-04-01T01:14:58.160Z,55.96
2017-04-01T01:16:01.629Z,55.96
2017-04-01T01:17:19.652Z,55.94
2017-04-01T01:17:43.164Z,55.94
2017-04-01T01:19:00.317Z,55.93
2017-04-01T01:19:55.498Z,55.94
2017-04-01T01:20:55.875Z,55.94
2017-04-01T01:21:49.745Z,55.94
2017-04-01T01:22:53.397Z,55.96
2017-04-01T01:24:04.888Z,55.79
2017-04-01T01:24:49.802Z,55.19
2017-04-01T01:25:46.238Z,55.77
2017-04-01T01:26:51.165Z,55.84
2017-04-01T01:27:55.396Z,55.88
2017-04-01T01:29:02.989Z,55.93
2017-04-01T01:30:01.511Z,55.92
2017-04-01T01:30:50.986Z,55.92
2017-04-01T01:31:58.009Z,55.93
2017-04-01T01:33:03.789Z,55.94
2017-04-01T01:33:59.830Z,55.95
2017-04-01T01:34:56.496Z,55.96
2017-04-01T01:35:55.669Z,55.94
2017-04-01T01:36:55.573Z,55.93
2017-04-01T01:37:51.040Z,55.95
2017-04-01T01:38:45.661Z,55.94
2017-04-01T01:39:53.901Z,55.94
2017-04-01T01:41:03.917Z,55.94
2017-04-01T01:42:03.787Z,55.96
2017-04-01T01:43:03.485Z,55.96
2017-04-01T01:43:52.641Z,55.93
2017-04-01T01:44:59.841Z,55.94
2017-04-01T01:45:56.013Z,55.94
2017-04-01T01:46:53.104Z,55.96
2017-04-01T01:48:00.665Z,55.94
2017-04-01T01:48:54.984Z,55.94
2017-04-01T01:50:00.778Z,55.93
2017-04-01T01:50:56.883Z,55.93
2017-04-01T01:51:53.849Z,55.94
2017-04-01T01:52:55.872Z,55.94
2017-04-01T01:53:46.191Z,55.95
2017-04-01T01:54:59.523Z,55.93
2017-04-01T01:55:50.222Z,55.94
2017-04-01T01:56:45.053Z,55.94
2017-04-01T01:57:53.528Z,55.95
2017-04-01T01:58:50.794Z,55.94
2017-04-01T01:59:59.204Z,55.95
2017-04-01T02:00:55.535Z,55.95
2017-04-01T02:01:49.245Z,55.93
2017-04-01T02:02:51.303Z,55.94
2017-04-01T02:03:49.386Z,55.94
2017-04-01T02:04:55.202Z,55.94
2017-04-01T02:05:50.156Z,55.93
2017-04-01T02:06:49.767Z,55.93
2017-04-01T02:07:52.433Z,55.94
2017-04-01T02:08:55.885Z,55.95
2017-04-01T02:10:16.837Z,55.94
2017-04-01T02:10:56.141Z,55.93
2017-04-01T02:11:59.868Z,55.94
2017-04-01T02:12:51.553Z,55.94
2017-04-01T02:14:00.142Z,55.81
2017-04-01T02:15:44.721Z,55.16
2017-04-01T02:16:49.847Z,55.67
2017-04-01T02:17:45.211Z,55.80
2017-04-01T02:18:59.821Z,55.85
2017-04-01T02:19:55.780Z,55.90
2017-04-01T02:20:51.468Z,55.91
2017-04-01T02:21:55.188Z,55.93
2017-04-01T02:22:50.764Z,55.92
2017-04-01T02:23:49.828Z,55.94
2017-04-01T02:24:54.745Z,55.93
2017-04-01T02:25:57.286Z,55.93
2017-04-01T02:26:59.118Z,55.93
2017-04-01T02:27:50.619Z,55.93
2017-04-01T02:28:55.279Z,55.93
2017-04-01T02:30:02.480Z,55.95
2017-04-01T02:30:53.173Z,55.93
2017-04-01T02:31:53.030Z,55.95
2017-04-01T02:32:50.232Z,55.96
2017-04-01T02:33:50.749Z,55.94
2017-04-01T02:34:50.201Z,55.94
2017-04-01T02:35:45.203Z,55.93
2017-04-01T02:36:55.817Z,55.95
2017-04-01T02:37:51.434Z,55.94
2017-04-01T02:38:49.299Z,55.94
2017-04-01T02:39:49.124Z,55.95
2017-04-01T02:40:57.583Z,55.94
2017-04-01T02:41:46.628Z,55.79
2017-04-01T02:42:41.137Z,55.94
2017-04-01T02:43:50.594Z,55.94
2017-04-01T02:44:44.943Z,55.94
2017-04-01T02:45:53.827Z,56.06
2017-04-01T02:46:54.059Z,55.95
2017-04-01T02:47:53.696Z,55.93
2017-04-01T02:48:54.984Z,55.95
2017-04-01T02:49:55.021Z,55.95
2017-04-01T02:50:49.978Z,55.95
2017-04-01T02:51:53.472Z,55.94
2017-04-01T02:53:00.860Z,55.95
2017-04-01T02:54:00.574Z,55.94
2017-04-01T02:54:44.926Z,55.94
2017-04-01T02:56:06.621Z,55.95
2017-04-01T02:56:49.852Z,55.95
2017-04-01T02:57:50.393Z,55.95
2017-04-01T02:58:54.480Z,55.94
2017-04-01T02:59:40.525Z,55.94
2017-04-01T03:00:50.341Z,55.94
2017-04-01T03:01:53.882Z,55.93
2017-04-01T03:02:57.641Z,55.95
2017-04-01T03:03:51.554Z,55.94
2017-04-01T03:04:51.945Z,55.94
2017-04-01T03:05:58.233Z,55.94
2017-04-01T03:06:44.226Z,55.95
2017-04-01T03:07:59.065Z,55.94
2017-04-01T03:08:53.082Z,55.95
2017-04-01T03:09:49.652Z,55.93
2017-04-01T03:10:44.788Z,55.95
2017-04-01T03:11:44.789Z,55.94
2017-04-01T03:13:06.904Z,55.94
2017-04-01T03:13:47.068Z,55.93
2017-04-01T03:14:50.270Z,55.94
2017-04-01T03:15:50.214Z,55.95
2017-04-01T03:16:45.523Z,55.95
2017-04-01T03:17:55.805Z,55.93
2017-04-01T03:18:54.263Z,55.94
2017-04-01T03:19:51.028Z,55.93
2017-04-01T03:20:54.235Z,55.93
2017-04-01T03:21:50.152Z,55.94
2017-04-01T03:22:53.628Z,55.95
2017-04-01T03:23:46.345Z,55.94
2017-04-01T03:24:50.536Z,55.94
2017-04-01T03:26:00.425Z,55.94
2017-04-01T03:27:01.695Z,55.96
2017-04-01T03:27:50.368Z,55.95
2017-04-01T03:28:52.378Z,55.95
2017-04-01T03:29:54.959Z,55.96
2017-04-01T03:30:51.933Z,55.77
2017-04-01T03:32:22.635Z,55.95
2017-04-01T03:32:50.898Z,55.92
2017-04-01T03:33:50.394Z,55.95
2017-04-01T03:34:50.930Z,55.95
2017-04-01T03:36:00.154Z,55.94
2017-04-01T03:36:54.303Z,55.96
2017-04-01T03:37:55.404Z,55.94
2017-04-01T03:38:50.335Z,55.95
2017-04-01T03:39:51.295Z,55.95
2017-04-01T03:40:49.110Z,55.95
2017-04-01T03:42:03.487Z,55.95
2017-04-01T03:42:57.718Z,55.95
2017-04-01T03:43:46.159Z,55.96
2017-04-01T03:44:43.517Z,55.96
2017-04-01T03:45:50.390Z,55.95
2017-04-01T03:46:49.857Z,55.96
2017-04-01T03:48:00.898Z,55.96
2017-04-01T03:48:50.083Z,55.95
2017-04-01T03:49:44.142Z,55.95
2017-04-01T03:50:45.326Z,55.95
2017-04-01T03:51:49.242Z,55.95
2017-04-01T03:52:49.201Z,55.96
2017-04-01T03:53:49.263Z,55.95
2017-04-01T03:54:50.933Z,55.96
2017-04-01T03:55:50.416Z,55.96
2017-04-01T03:56:49.508Z,55.96
2017-04-01T03:57:55.919Z,55.96
2017-04-01T03:58:55.385Z,55.96
2017-04-01T03:59:45.665Z,55.96
2017-04-01T04:00:49.752Z,55.95
2017-04-01T04:02:00.069Z,55.96
2017-04-01T04:02:44.963Z,55.96
2017-04-01T04:03:54.059Z,55.96
2017-04-01T04:04:45.174Z,55.95
2017-04-01T04:05:49.189Z,55.95
2017-04-01T04:06:45.485Z,55.96
2017-04-01T04:07:44.032Z,55.95
2017-04-01T04:08:45.855Z,55.96
2017-04-01T04:10:00.954Z,55.96
2017-04-01T04:10:50.080Z,55.95
2017-04-01T04:11:50.388Z,55.96
2017-04-01T04:13:01.615Z,55.94
2017-04-01T04:13:51.018Z,55.94
2017-04-01T04:14:45.068Z,55.95
2017-04-01T04:15:59.860Z,55.96
2017-04-01T04:16:50.381Z,55.96
2017-04-01T04:17:55.245Z,55.07
2017-04-01T04:18:53.131Z,54.96
2017-04-01T04:20:00.114Z,55.65
2017-04-01T04:20:54.381Z,55.79
2017-04-01T04:21:54.381Z,55.85
2017-04-01T04:22:59.685Z,55.91
2017-04-01T04:23:55.525Z,55.90
2017-04-01T04:24:50.382Z,55.78
2017-04-01T04:25:52.539Z,55.03
2017-04-01T04:26:50.039Z,54.86
2017-04-01T04:27:52.602Z,54.65
2017-04-01T04:28:47.027Z,54.74
2017-04-01T04:29:49.325Z,54.70
2017-04-01T04:30:51.682Z,54.68
2017-04-01T04:31:51.321Z,54.66
2017-04-01T04:32:59.424Z,54.65
2017-04-01T04:33:54.761Z,55.37
2017-04-01T04:34:51.415Z,55.68
2017-04-01T04:35:44.328Z,55.77
2017-04-01T04:36:50.836Z,55.84
2017-04-01T04:37:49.963Z,55.86
2017-04-01T04:38:53.476Z,55.88
2017-04-01T04:39:50.220Z,55.90
2017-04-01T04:40:50.789Z,55.90
2017-04-01T04:41:46.742Z,55.90
2017-04-01T04:42:51.665Z,55.91
2017-04-01T04:43:50.243Z,55.92
2017-04-01T04:45:24.505Z,55.94
2017-04-01T04:45:59.168Z,55.95
2017-04-01T04:46:58.114Z,55.94
2017-04-01T04:47:51.526Z,55.94
2017-04-01T04:48:59.515Z,55.77
2017-04-01T04:50:00.027Z,55.03
2017-04-01T04:50:49.384Z,54.85
2017-04-01T04:51:56.631Z,54.75
2017-04-01T04:52:50.683Z,54.77
2017-04-01T04:53:56.080Z,55.55
2017-04-01T04:54:44.862Z,55.74
2017-04-01T04:55:49.859Z,55.81
2017-04-01T04:56:50.386Z,55.84
2017-04-01T04:57:52.075Z,55.88
2017-04-01T04:58:48.230Z,55.88
2017-04-01T04:59:49.935Z,55.86
2017-04-01T05:00:54.572Z,55.90
2017-04-01T05:01:56.731Z,55.02
2017-04-01T05:02:53.396Z,54.85
2017-04-01T05:03:50.116Z,54.77
2017-04-01T05:04:56.758Z,54.72
2017-04-01T05:05:50.095Z,54.69
2017-04-01T05:06:43.524Z,54.67
2017-04-01T05:07:45.292Z,54.67
2017-04-01T05:08:45.281Z,54.64
2017-04-01T05:09:50.772Z,54.63
2017-04-01T05:10:50.846Z,54.81
2017-04-01T05:11:59.169Z,55.51
2017-04-01T05:12:49.726Z,55.54
2017-04-01T05:14:00.497Z,54.91
2017-04-01T05:14:45.254Z,54.74
2017-04-01T05:15:55.023Z,54.73
2017-04-01T05:16:56.687Z,54.66
2017-04-01T05:17:49.445Z,54.65
2017-04-01T05:18:50.195Z,54.62
2017-04-01T05:19:54.690Z,54.61
2017-04-01T05:20:50.335Z,54.74
2017-04-01T05:21:53.809Z,54.61
2017-04-01T05:22:56.259Z,54.57
2017-04-01T05:23:55.858Z,54.65
2017-04-01T05:24:51.799Z,55.45
2017-04-01T05:25:49.766Z,55.63
2017-04-01T05:26:51.482Z,55.74
2017-04-01T05:27:50.781Z,55.79
2017-04-01T05:28:49.788Z,55.83
2017-04-01T05:29:59.830Z,55.84
2017-04-01T05:30:56.116Z,55.86
2017-04-01T05:31:50.048Z,55.73
2017-04-01T05:32:45.217Z,55.00
2017-04-01T05:33:54.319Z,54.82
2017-04-01T05:34:50.474Z,54.74
2017-04-01T05:35:50.885Z,54.69
2017-04-01T05:36:51.962Z,54.66
2017-04-01T05:37:44.075Z,54.63
2017-04-01T05:38:49.691Z,54.82
2017-04-01T05:39:50.468Z,55.48
2017-04-01T05:40:45.229Z,55.69
2017-04-01T05:41:58.202Z,55.75
2017-04-01T05:42:45.213Z,55.80
2017-04-01T05:43:45.108Z,55.83
2017-04-01T05:44:48.139Z,55.84
2017-04-01T05:45:50.180Z,55.86
2017-04-01T05:46:50.016Z,55.86
2017-04-01T05:47:45.294Z,55.88
2017-04-01T05:48:49.675Z,55.87
2017-04-01T05:49:49.284Z,55.89
2017-04-01T05:50:53.428Z,55.89
2017-04-01T05:51:43.830Z,55.89
2017-04-01T05:52:45.070Z,55.90
2017-04-01T05:53:49.584Z,55.90
2017-04-01T05:54:55.618Z,55.90
2017-04-01T05:55:46.028Z,55.89
2017-04-01T05:56:53.154Z,55.90
2017-04-01T05:57:49.320Z,55.89
2017-04-01T05:58:45.708Z,55.90
2017-04-01T05:59:51.074Z,55.90
2017-04-01T06:00:53.363Z,55.90
2017-04-01T06:01:54.178Z,55.90
2017-04-01T06:02:48.487Z,55.90
2017-04-01T06:03:55.636Z,55.89
2017-04-01T06:04:52.857Z,55.89
2017-04-01T06:05:49.498Z,55.89
2017-04-01T06:06:50.617Z,55.89
2017-04-01T06:07:54.659Z,55.89
2017-04-01T06:08:50.661Z,55.88
2017-04-01T06:09:51.458Z,55.88
2017-04-01T06:10:50.398Z,55.89
2017-04-01T06:11:49.276Z,55.89
2017-04-01T06:12:55.546Z,55.89
2017-04-01T06:13:50.758Z,55.89
2017-04-01T06:14:57.866Z,55.89
2017-04-01T06:15:56.858Z,55.88
2017-04-01T06:16:50.203Z,55.89
2017-04-01T06:17:49.827Z,55.74
2017-04-01T06:18:57.676Z,54.99
2017-04-01T06:19:56.071Z,54.82
2017-04-01T06:20:50.390Z,55.58
2017-04-01T06:21:50.862Z,55.73
2017-04-01T06:23:04.789Z,55.78
2017-04-01T06:23:54.420Z,55.82
2017-04-01T06:24:50.460Z,55.83
2017-04-01T06:25:54.483Z,55.84
2017-04-01T06:26:45.535Z,55.85
2017-04-01T06:27:53.123Z,55.84
2017-04-01T06:28:49.629Z,55.84
2017-04-01T06:30:01.691Z,55.87
2017-04-01T06:31:00.646Z,55.86
2017-04-01T06:31:51.116Z,55.72
2017-04-01T06:32:54.360Z,54.97
2017-04-01T06:33:56.374Z,55.20
2017-04-01T06:34:46.390Z,55.58
2017-04-01T06:35:44.102Z,55.71
2017-04-01T06:37:03.523Z,55.77
2017-04-01T06:38:03.649Z,55.79
2017-04-01T06:38:56.424Z,55.81
2017-04-01T06:39:50.447Z,55.83
2017-04-01T06:40:50.083Z,55.69
2017-04-01T06:41:53.129Z,55.25
2017-04-01T06:42:49.342Z,55.65
2017-04-01T06:43:46.443Z,55.74
2017-04-01T06:44:51.469Z,55.80
2017-04-01T06:45:49.506Z,55.80
2017-04-01T06:46:49.126Z,55.81
2017-04-01T06:48:03.451Z,55.82
2017-04-01T06:49:03.483Z,55.81
2017-04-01T06:49:52.128Z,55.83
2017-04-01T06:50:45.046Z,55.83
2017-04-01T06:51:49.301Z,55.85
2017-04-01T06:52:56.615Z,55.84
2017-04-01T06:53:51.594Z,55.83
2017-04-01T06:54:51.079Z,55.83
2017-04-01T06:55:49.453Z,55.84
2017-04-01T06:57:03.463Z,55.84
2017-04-01T06:57:52.809Z,55.83
2017-04-01T06:58:48.929Z,55.83
2017-04-01T06:59:43.032Z,55.84
2017-04-01T07:00:50.698Z,55.84
2017-04-01T07:01:49.278Z,55.83
2017-04-01T07:02:44.785Z,55.84
2017-04-01T07:03:56.351Z,55.84
2017-04-01T07:04:46.405Z,55.84
2017-04-01T07:05:50.391Z,55.85
2017-04-01T07:06:56.404Z,55.84
2017-04-01T07:07:44.918Z,55.83
2017-04-01T07:08:44.767Z,55.84
2017-04-01T07:09:53.167Z,55.85
2017-04-01T07:10:53.708Z,55.85
2017-04-01T07:11:50.582Z,55.84
2017-04-01T07:12:52.470Z,55.84
2017-04-01T07:13:51.166Z,55.84
2017-04-01T07:14:52.687Z,55.85
2017-04-01T07:15:56.724Z,55.84
2017-04-01T07:16:51.049Z,55.83
2017-04-01T07:17:38.977Z,55.83
2017-04-01T07:18:55.700Z,55.85
2017-04-01T07:19:53.090Z,55.84
2017-04-01T07:20:44.932Z,55.83
2017-04-01T07:21:44.458Z,55.80
2017-04-01T07:22:50.730Z,55.84
2017-04-01T07:23:46.497Z,55.84
2017-04-01T07:24:56.355Z,55.84
2017-04-01T07:25:53.447Z,55.83
2017-04-01T07:27:00.612Z,55.85
2017-04-01T07:27:49.843Z,55.83
2017-04-01T07:28:46.203Z,55.83
2017-04-01T07:30:02.315Z,55.84
2017-04-01T07:30:49.578Z,55.84
2017-04-01T07:31:47.752Z,55.84
2017-04-01T07:32:51.621Z,55.85
2017-04-01T07:33:44.833Z,55.98
2017-04-01T07:34:49.862Z,54.97
2017-04-01T07:35:38.881Z,54.77
2017-04-01T07:36:51.168Z,54.69
2017-04-01T07:37:50.226Z,55.48
2017-04-01T07:38:54.759Z,55.64
2017-04-01T07:40:01.473Z,55.72
2017-04-01T07:40:50.616Z,55.78
2017-04-01T07:41:54.740Z,55.80
2017-04-01T07:42:51.659Z,55.82
2017-04-01T07:43:57.473Z,55.84
2017-04-01T07:44:49.838Z,55.85
2017-04-01T07:45:45.059Z,55.86
2017-04-01T07:46:52.962Z,55.86
2017-04-01T07:47:48.070Z,55.85
2017-04-01T07:48:50.895Z,55.85
2017-04-01T07:49:49.500Z,55.86
2017-04-01T07:50:58.225Z,55.88
2017-04-01T07:51:59.465Z,55.88
2017-04-01T07:52:44.730Z,55.89
2017-04-01T07:54:05.281Z,55.89
2017-04-01T07:54:49.059Z,55.90
2017-04-01T07:55:50.864Z,55.89
2017-04-01T07:56:46.770Z,55.91
2017-04-01T07:57:59.222Z,55.90
2017-04-01T07:58:51.908Z,55.90
2017-04-01T07:59:49.863Z,55.92
2017-04-01T08:00:49.649Z,55.92
2017-04-01T08:01:47.226Z,55.91
2017-04-01T08:03:27.368Z,54.99
2017-04-01T08:03:57.896Z,54.83
2017-04-01T08:04:53.828Z,54.75
2017-04-01T08:05:44.718Z,54.68
2017-04-01T08:06:56.414Z,54.65
2017-04-01T08:07:51.263Z,54.71
2017-04-01T08:09:00.745Z,54.62
2017-04-01T08:10:00.218Z,54.60
2017-04-01T08:11:21.021Z,54.59
2017-04-01T08:11:49.808Z,54.58
2017-04-01T08:13:24.188Z,54.57
2017-04-01T08:13:52.734Z,54.55
2017-04-01T08:16:01.239Z,54.54
2017-04-01T08:16:39.445Z,54.55
2017-04-01T08:17:44.640Z,54.55
2017-04-01T08:19:53.905Z,54.81
2017-04-01T08:19:53.930Z,55.45
2017-04-01T08:20:47.099Z,55.63
2017-04-01T08:22:27.221Z,55.74
2017-04-01T08:22:57.976Z,55.79
2017-04-01T08:23:43.450Z,55.83
2017-04-01T08:24:50.270Z,55.85
2017-04-01T08:25:45.847Z,55.86
2017-04-01T08:27:04.222Z,55.88
2017-04-01T08:27:46.784Z,55.88
2017-04-01T08:28:48.516Z,55.88
2017-04-01T08:30:16.191Z,55.90
2017-04-01T08:30:49.539Z,55.92
2017-04-01T08:31:56.934Z,55.92
2017-04-01T08:32:54.117Z,55.92
2017-04-01T08:33:45.133Z,55.91
2017-04-01T08:34:47.783Z,55.92
2017-04-01T08:35:53.515Z,55.93
2017-04-01T08:36:50.687Z,55.93
2017-04-01T08:37:51.520Z,55.93
2017-04-01T08:38:45.552Z,55.92
2017-04-01T08:39:54.138Z,55.93
2017-04-01T08:40:51.342Z,55.93
2017-04-01T08:41:50.845Z,55.93
2017-04-01T08:42:53.335Z,55.94
2017-04-01T08:43:49.621Z,55.93
2017-04-01T08:44:46.481Z,55.93
2017-04-01T08:45:49.690Z,55.94
2017-04-01T08:46:55.867Z,55.94
2017-04-01T08:47:46.336Z,55.93
2017-04-01T08:48:43.331Z,55.93
2017-04-01T08:49:48.994Z,55.94
2017-04-01T08:50:43.123Z,55.93
2017-04-01T08:51:59.394Z,55.94
2017-04-01T08:52:50.132Z,55.91
2017-04-01T08:53:48.919Z,55.92
2017-04-01T08:54:53.796Z,55.91
2017-04-01T08:56:03.789Z,55.92
2017-04-01T08:56:55.585Z,55.93
2017-04-01T08:57:45.018Z,55.88
2017-04-01T08:58:44.047Z,55.91
2017-04-01T08:59:52.152Z,55.90
2017-04-01T09:00:45.209Z,55.90
2017-04-01T09:01:44.029Z,55.74
2017-04-01T09:02:45.549Z,55.01
2017-04-01T09:03:52.270Z,54.81
2017-04-01T09:04:52.679Z,55.05
2017-04-01T09:05:47.528Z,55.58
2017-04-01T09:07:00.253Z,55.71
2017-04-01T09:07:50.842Z,55.77
2017-04-01T09:08:53.406Z,55.82
2017-04-01T09:09:56.697Z,55.85
2017-04-01T09:10:49.848Z,55.87
2017-04-01T09:11:45.094Z,55.90
2017-04-01T09:12:47.268Z,55.87
2017-04-01T09:13:50.012Z,55.88
2017-04-01T09:14:51.953Z,55.89
2017-04-01T09:15:47.701Z,55.91
2017-04-01T09:16:39.418Z,55.91
2017-04-01T09:17:56.374Z,55.77
2017-04-01T09:18:48.717Z,55.04
2017-04-01T09:19:40.761Z,54.84
2017-04-01T09:20:45.720Z,54.69
2017-04-01T09:21:50.767Z,54.70
2017-04-01T09:22:44.763Z,54.66
2017-04-01T09:23:53.446Z,54.62
2017-04-01T09:24:46.019Z,54.62
2017-04-01T09:25:50.377Z,54.58
2017-04-01T09:26:57.633Z,54.58
2017-04-01T09:27:51.817Z,54.57
2017-04-01T09:29:14.108Z,54.57
2017-04-01T09:29:54.040Z,54.57
2017-04-01T09:30:56.893Z,54.60
2017-04-01T09:31:53.450Z,54.58
2017-04-01T09:32:55.342Z,54.58
2017-04-01T09:33:44.392Z,54.48
2017-04-01T09:34:45.478Z,54.59
2017-04-01T09:35:52.672Z,54.55
2017-04-01T09:36:59.707Z,54.57
2017-04-01T09:37:44.245Z,54.54
2017-04-01T09:38:49.590Z,54.56
2017-04-01T09:39:51.675Z,54.56
2017-04-01T09:40:51.312Z,54.45
2017-04-01T09:41:50.528Z,54.55
2017-04-01T09:42:44.198Z,54.51
2017-04-01T09:43:52.697Z,54.53
2017-04-01T09:44:52.054Z,54.56
2017-04-01T09:45:50.989Z,54.59
2017-04-01T09:46:49.799Z,55.42
2017-04-01T09:47:39.844Z,55.62
2017-04-01T09:48:50.908Z,55.71
2017-04-01T09:49:56.033Z,55.78
2017-04-01T09:50:49.697Z,55.83
2017-04-01T09:51:45.594Z,55.84
2017-04-01T09:52:54.559Z,55.88
2017-04-01T09:53:54.023Z,55.89
2017-04-01T09:54:38.044Z,55.91
2017-04-01T09:55:43.473Z,55.92
2017-04-01T09:56:56.523Z,55.94
2017-04-01T09:57:50.921Z,55.93
2017-04-01T09:58:49.465Z,55.92
2017-04-01T09:59:53.654Z,55.94
2017-04-01T10:01:00.469Z,55.93
2017-04-01T10:01:49.760Z,55.96
2017-04-01T10:02:50.272Z,55.94
2017-04-01T10:03:46.372Z,55.93
2017-04-01T10:04:51.323Z,55.93
2017-04-01T10:05:48.423Z,55.92
2017-04-01T10:07:00.423Z,55.94
2017-04-01T10:07:44.755Z,55.95
2017-04-01T10:08:50.738Z,55.95
2017-04-01T10:09:52.025Z,55.95
2017-04-01T10:10:43.329Z,55.95
2017-04-01T10:11:51.434Z,55.94
2017-04-01T10:13:06.722Z,55.96
2017-04-01T10:13:45.627Z,55.96
2017-04-01T10:14:50.825Z,55.93
2017-04-01T10:15:56.279Z,55.94
2017-04-01T10:16:44.024Z,55.94
2017-04-01T10:17:44.021Z,55.94
2017-04-01T10:18:50.844Z,55.94
2017-04-01T10:19:47.893Z,55.96
2017-04-01T10:20:44.024Z,55.96
2017-04-01T10:21:49.093Z,55.96
2017-04-01T10:22:52.808Z,55.96
2017-04-01T10:23:45.544Z,55.95
2017-04-01T10:24:44.808Z,55.95
2017-04-01T10:25:50.525Z,55.94
2017-04-01T10:26:51.341Z,55.96
2017-04-01T10:27:44.890Z,55.96
2017-04-01T10:28:43.986Z,55.97
2017-04-01T10:29:43.986Z,55.96
2017-04-01T10:30:52.940Z,55.96
2017-04-01T10:31:39.026Z,55.96
2017-04-01T10:32:49.001Z,55.96
2017-04-01T10:33:59.228Z,55.06
2017-04-01T10:34:55.234Z,54.86
2017-04-01T10:35:50.635Z,54.77
2017-04-01T10:36:49.731Z,54.71
2017-04-01T10:38:03.367Z,54.68
2017-04-01T10:38:52.418Z,54.65
2017-04-01T10:39:45.237Z,54.69
2017-04-01T10:40:43.351Z,55.37
2017-04-01T10:41:45.697Z,55.66
2017-04-01T10:42:44.439Z,55.76
2017-04-01T10:43:45.094Z,55.80
2017-04-01T10:44:53.542Z,55.84
2017-04-01T10:45:45.993Z,55.85
2017-04-01T10:46:55.275Z,55.86
2017-04-01T10:47:58.147Z,55.87
2017-04-01T10:48:44.986Z,55.87
2017-04-01T10:50:04.648Z,55.82
2017-04-01T10:50:43.950Z,55.31
2017-04-01T10:51:45.524Z,55.85
2017-04-01T10:52:52.770Z,55.80
2017-04-01T10:53:59.288Z,55.85
2017-04-01T10:54:50.120Z,55.86
2017-04-01T10:55:48.623Z,55.87
2017-04-01T10:56:47.858Z,55.86
2017-04-01T10:57:45.722Z,55.86
2017-04-01T10:59:01.069Z,55.87
2017-04-01T10:59:57.660Z,55.87
2017-04-01T11:00:55.709Z,55.88
2017-04-01T11:01:45.577Z,55.87
2017-04-01T11:02:50.594Z,55.88
2017-04-01T11:03:44.708Z,55.86
2017-04-01T11:04:50.250Z,55.87
2017-04-01T11:05:44.625Z,55.87
2017-04-01T11:06:49.236Z,55.74
2017-04-01T11:07:50.568Z,54.99
2017-04-01T11:08:50.010Z,54.80
2017-04-01T11:09:45.198Z,54.71
2017-04-01T11:10:50.632Z,54.66
2017-04-01T11:11:49.777Z,55.47
2017-04-01T11:12:57.217Z,55.67
2017-04-01T11:13:44.092Z,55.77
2017-04-01T11:14:43.608Z,55.80
2017-04-01T11:15:39.479Z,55.84
2017-04-01T11:16:50.589Z,55.86
2017-04-01T11:17:46.311Z,55.88
2017-04-01T11:18:49.182Z,55.89
2017-04-01T11:19:51.975Z,55.90
2017-04-01T11:21:03.760Z,55.90
2017-04-01T11:21:48.771Z,55.89
2017-04-01T11:22:50.549Z,55.89
2017-04-01T11:23:53.488Z,55.92
2017-04-01T11:24:45.137Z,55.91
2017-04-01T11:25:57.193Z,55.91
2017-04-01T11:26:49.727Z,55.89
2017-04-01T11:27:56.586Z,55.91
2017-04-01T11:28:51.187Z,55.91
2017-04-01T11:29:50.487Z,55.90
2017-04-01T11:30:53.495Z,55.89
2017-04-01T11:31:50.973Z,55.87
2017-04-01T11:32:44.014Z,55.88
2017-04-01T11:33:52.973Z,55.88
2017-04-01T11:34:38.559Z,55.87
2017-04-01T11:35:44.329Z,55.88
2017-04-01T11:36:48.339Z,55.90
2017-04-01T11:38:04.689Z,55.88
2017-04-01T11:38:53.353Z,55.86
2017-04-01T11:39:52.529Z,55.86
2017-04-01T11:40:50.604Z,55.88
2017-04-01T11:41:44.020Z,55.88
2017-04-01T11:42:39.646Z,55.88
2017-04-01T11:43:51.582Z,55.11
2017-04-01T11:45:03.305Z,55.67
2017-04-01T11:45:52.226Z,55.78
2017-04-01T11:46:57.004Z,55.92
2017-04-01T11:47:50.260Z,55.84
2017-04-01T11:48:50.943Z,55.85
2017-04-01T11:49:44.859Z,55.86
2017-04-01T11:50:35.236Z,55.87
2017-04-01T11:51:50.440Z,55.89
2017-04-01T11:52:49.554Z,55.88
2017-04-01T11:53:49.976Z,55.89
2017-04-01T11:54:48.855Z,55.12
2017-04-01T11:55:45.044Z,54.81
2017-04-01T11:57:03.503Z,54.70
2017-04-01T11:57:53.000Z,54.66
2017-04-01T11:58:49.985Z,54.63
2017-04-01T11:59:47.336Z,54.59
2017-04-01T12:00:50.690Z,54.58
2017-04-01T12:01:59.344Z,54.56
2017-04-01T12:03:00.306Z,54.56
2017-04-01T12:03:50.430Z,54.63
2017-04-01T12:04:39.804Z,55.27
2017-04-01T12:05:46.853Z,55.04
2017-04-01T12:06:45.541Z,55.51
2017-04-01T12:07:40.761Z,55.66
2017-04-01T12:08:45.518Z,55.75
2017-04-01T12:09:44.181Z,55.79
2017-04-01T12:10:50.547Z,55.81
2017-04-01T12:11:48.446Z,55.84
2017-04-01T12:12:44.812Z,55.84
2017-04-01T12:13:50.752Z,55.84
2017-04-01T12:14:49.766Z,55.85
2017-04-01T12:15:47.448Z,55.86
2017-04-01T12:16:51.935Z,55.88
2017-04-01T12:17:54.104Z,55.88
2017-04-01T12:18:48.402Z,55.89
2017-04-01T12:19:53.546Z,55.90
2017-04-01T12:20:49.765Z,55.89
2017-04-01T12:22:00.838Z,55.90
2017-04-01T12:22:44.567Z,55.89
2017-04-01T12:23:45.570Z,55.88
2017-04-01T12:24:46.873Z,55.88
2017-04-01T12:25:56.421Z,55.89
2017-04-01T12:26:55.077Z,55.90
2017-04-01T12:28:06.665Z,55.91
2017-04-01T12:28:49.274Z,55.90
2017-04-01T12:29:52.451Z,55.90
2017-04-01T12:30:51.869Z,55.90
2017-04-01T12:31:50.589Z,55.93
2017-04-01T12:32:50.979Z,55.92
2017-04-01T12:33:44.867Z,55.91
2017-04-01T12:34:45.772Z,55.91
2017-04-01T12:35:46.857Z,55.91
2017-04-01T12:36:55.515Z,55.90
2017-04-01T12:37:56.924Z,55.92
2017-04-01T12:38:50.973Z,55.92
2017-04-01T12:39:50.549Z,55.05
2017-04-01T12:40:43.835Z,54.88
2017-04-01T12:41:44.077Z,54.91
2017-04-01T12:42:51.334Z,54.66
2017-04-01T12:43:53.003Z,55.51
2017-04-01T12:44:50.169Z,55.66
2017-04-01T12:46:04.734Z,55.75
2017-04-01T12:46:50.643Z,55.81
2017-04-01T12:48:02.798Z,55.83
2017-04-01T12:49:01.326Z,55.84
2017-04-01T12:50:00.747Z,55.86
2017-04-01T12:50:44.970Z,55.87
2017-04-01T12:51:48.648Z,55.87
2017-04-01T12:52:50.976Z,55.88
2017-04-01T12:53:47.459Z,55.89